createdAt,value
2023-03-17T00:04:55.950Z,72.76
2023-03-17T00:09:57.365Z,72.94
2023-03-17T00:14:58.776Z,73.55
2023-03-17T00:20:00.196Z,73.46
2023-03-17T00:25:01.767Z,73.88
2023-03-17T00:30:03.449Z,74.04
2023-03-17T00:35:14.952Z,74.01
2023-03-17T00:40:31.136Z,74.55
2023-03-17T00:45:32.963Z,74.50
2023-03-17T00:50:34.405Z,74.54
2023-03-17T00:55:36.164Z,74.83
2023-03-17T01:07:00.308Z,75.00
2023-03-17T01:12:01.816Z,75.42
2023-03-17T01:17:03.843Z,74.44
2023-03-17T01:22:05.397Z,75.16
2023-03-17T01:27:07.491Z,75.52
2023-03-17T01:32:09.312Z,75.15
2023-03-17T01:37:11.013Z,75.04
2023-03-17T01:42:13.610Z,75.65
2023-03-17T01:47:17.000Z,75.13
2023-03-17T01:52:22.167Z,75.73
2023-03-17T01:57:38.055Z,75.75
2023-03-17T02:02:44.904Z,75.80
2023-03-17T02:07:46.646Z,76.84
2023-03-17T02:12:53.274Z,76.35
2023-03-17T02:17:55.183Z,76.43
2023-03-17T02:22:57.564Z,77.31
2023-03-17T02:28:09.753Z,76.69
2023-03-17T02:33:12.225Z,77.28
2023-03-17T02:38:14.625Z,76.69
2023-03-17T02:43:16.797Z,77.18
2023-03-17T02:48:18.995Z,77.38
2023-03-17T02:53:22.002Z,77.26
2023-03-17T02:58:24.766Z,77.00
2023-03-17T03:03:26.658Z,77.18
2023-03-17T03:08:28.213Z,77.27
2023-03-17T03:13:29.679Z,78.33
2023-03-17T03:18:32.779Z,78.36
2023-03-17T03:23:35.427Z,78.35
2023-03-17T03:28:37.371Z,78.75
2023-03-17T03:33:39.821Z,78.89
2023-03-17T03:38:41.984Z,78.92
2023-03-17T03:43:43.586Z,79.07
2023-03-17T03:48:45.151Z,79.32
2023-03-17T03:53:48.251Z,79.73
2023-03-17T03:58:52.140Z,79.93
2023-03-17T04:03:53.897Z,80.70
2023-03-17T04:08:58.262Z,79.88
2023-03-17T04:14:00.157Z,80.28
2023-03-17T04:19:01.603Z,80.24
2023-03-17T04:24:05.176Z,80.54
2023-03-17T04:29:09.031Z,80.66
2023-03-17T04:34:16.368Z,81.25
2023-03-17T04:39:18.501Z,81.61
2023-03-17T04:44:20.194Z,81.42
2023-03-17T04:49:21.968Z,81.55
2023-03-17T04:54:24.682Z,81.30
2023-03-17T04:59:26.798Z,81.53
2023-03-17T05:04:32.028Z,82.04
2023-03-17T05:09:37.590Z,82.13
2023-03-17T05:14:39.363Z,81.98
2023-03-17T05:19:40.967Z,81.89
2023-03-17T05:24:43.041Z,82.22
2023-03-17T05:29:45.978Z,82.38
2023-03-17T05:34:47.931Z,82.17
2023-03-17T05:39:49.757Z,81.76
2023-03-17T05:44:51.484Z,82.13
2023-03-17T05:49:53.425Z,82.49
2023-03-17T05:54:55.459Z,81.95
2023-03-17T05:59:57.386Z,82.15
2023-03-17T06:04:59.253Z,81.61
2023-03-17T06:10:00.688Z,80.36
2023-03-17T06:15:02.666Z,80.28
2023-03-17T06:20:05.480Z,79.52
2023-03-17T06:25:07.291Z,77.84
2023-03-17T06:30:11.535Z,75.55
2023-03-17T06:35:13.359Z,70.98
2023-03-17T06:40:16.145Z,69.04
2023-03-17T06:45:18.256Z,68.09
2023-03-17T06:50:20.016Z,70.06
2023-03-17T06:55:21.661Z,70.21
2023-03-17T07:00:23.813Z,67.96
2023-03-17T07:05:25.272Z,66.95
2023-03-17T07:10:26.762Z,65.33
2023-03-17T07:15:31.823Z,62.11
2023-03-17T07:20:33.531Z,61.87
2023-03-17T07:25:36.809Z,60.45
2023-03-17T07:30:38.228Z,55.40
2023-03-17T07:35:39.830Z,51.52
2023-03-17T07:40:41.627Z,48.08
2023-03-17T07:45:44.182Z,42.72
2023-03-17T07:50:45.941Z,41.56
2023-03-17T07:55:47.404Z,40.87
2023-03-17T08:00:48.968Z,38.03
2023-03-17T08:05:57.986Z,39.43
2023-03-17T08:11:04.541Z,35.83
2023-03-17T08:16:07.166Z,33.33
2023-03-17T08:21:09.699Z,32.17
2023-03-17T08:26:11.369Z,31.00
2023-03-17T08:31:20.834Z,31.10
2023-03-17T08:36:23.908Z,31.74
2023-03-17T08:41:28.274Z,32.54
2023-03-17T08:46:32.473Z,33.59
2023-03-17T08:51:36.830Z,33.96
2023-03-17T08:56:39.780Z,34.56
2023-03-17T09:01:41.966Z,33.90
2023-03-17T09:07:01.304Z,34.34
2023-03-17T09:12:06.245Z,34.06
2023-03-17T09:17:08.460Z,34.02
2023-03-17T09:22:14.197Z,34.03
2023-03-17T09:27:15.658Z,32.84
2023-03-17T09:32:17.832Z,34.01
2023-03-17T09:37:19.225Z,33.97
2023-03-17T09:42:39.203Z,34.47
2023-03-17T09:47:59.368Z,33.37
2023-03-17T09:53:04.022Z,33.61
2023-03-17T09:58:05.716Z,33.92
2023-03-17T10:03:10.868Z,34.54
2023-03-17T10:08:31.352Z,35.20
2023-03-17T10:13:50.025Z,35.82
2023-03-17T10:19:14.320Z,35.73
2023-03-17T10:24:16.304Z,36.17
2023-03-17T10:29:23.788Z,36.50
2023-03-17T10:34:36.651Z,36.30
2023-03-17T10:39:56.070Z,35.64
2023-03-17T10:45:40.925Z,36.07
2023-03-17T10:50:43.285Z,35.59
2023-03-17T10:55:52.453Z,36.62
2023-03-17T11:01:00.321Z,38.04
2023-03-17T11:06:11.549Z,38.03
2023-03-17T11:11:33.576Z,36.70
2023-03-17T11:16:38.188Z,37.50
2023-03-17T11:21:55.464Z,37.44
2023-03-17T11:27:13.294Z,37.16
2023-03-17T11:32:29.321Z,37.80
2023-03-17T11:37:51.176Z,37.54
2023-03-17T11:43:25.998Z,37.76
2023-03-17T11:48:36.448Z,37.34
2023-03-17T11:54:02.515Z,36.93
2023-03-17T11:59:12.146Z,38.17
2023-03-17T12:04:30.495Z,38.47
2023-03-17T12:09:55.306Z,38.86
2023-03-17T12:14:59.492Z,38.78
2023-03-17T12:20:14.828Z,39.08
2023-03-17T12:26:05.113Z,38.77
2023-03-17T12:31:14.117Z,38.68
2023-03-17T12:36:17.572Z,38.14
2023-03-17T12:42:01.564Z,38.64
2023-03-17T12:47:21.383Z,38.26
2023-03-17T12:52:58.007Z,39.05
2023-03-17T12:58:03.426Z,38.89
2023-03-17T13:03:23.523Z,39.22
2023-03-17T13:08:31.149Z,39.31
2023-03-17T13:13:48.138Z,38.54
2023-03-17T13:18:49.866Z,38.17
2023-03-17T13:24:16.252Z,37.63
2023-03-17T13:29:26.298Z,38.40
2023-03-17T13:34:28.418Z,38.27
2023-03-17T13:39:58.974Z,38.27
2023-03-17T13:45:16.271Z,38.78
2023-03-17T13:50:30.803Z,37.76
2023-03-17T13:55:38.871Z,38.03
2023-03-17T14:00:44.333Z,39.03
2023-03-17T14:05:51.008Z,39.26
2023-03-17T14:10:55.097Z,39.84
2023-03-17T14:16:06.823Z,40.11
2023-03-17T14:21:21.249Z,39.86
2023-03-17T14:26:24.838Z,40.45
2023-03-17T14:31:29.155Z,40.76
2023-03-17T14:36:33.993Z,40.92
2023-03-17T14:41:36.141Z,41.95
2023-03-17T14:46:38.714Z,42.23
2023-03-17T14:51:41.985Z,42.28
2023-03-17T14:56:57.845Z,42.76
2023-03-17T15:02:02.625Z,43.46
2023-03-17T15:07:07.577Z,43.97
2023-03-17T15:12:22.011Z,44.73
2023-03-17T15:17:28.996Z,45.18
2023-03-17T15:22:39.129Z,45.91
2023-03-17T15:27:40.664Z,46.07
2023-03-17T15:32:42.216Z,45.69
2023-03-17T15:37:43.918Z,46.03
2023-03-17T15:42:45.685Z,45.57
2023-03-17T15:47:47.642Z,46.77
2023-03-17T15:52:49.548Z,46.27
2023-03-17T15:57:55.042Z,46.38
2023-03-17T16:03:00.196Z,45.77
2023-03-17T16:08:02.291Z,45.61
2023-03-17T16:13:03.794Z,46.11
2023-03-17T16:18:08.261Z,46.96
2023-03-17T16:23:23.341Z,47.93
2023-03-17T16:28:30.824Z,47.61
2023-03-17T16:33:40.318Z,47.24
2023-03-17T16:38:41.909Z,47.39
2023-03-17T16:43:45.471Z,47.88
2023-03-17T16:48:48.385Z,47.63
2023-03-17T16:53:49.904Z,48.16
2023-03-17T16:58:51.445Z,48.26
2023-03-17T17:03:53.663Z,47.96
2023-03-17T17:08:55.375Z,48.07
2023-03-17T17:13:58.383Z,48.67
2023-03-17T17:19:00.238Z,50.05
2023-03-17T17:24:01.672Z,50.26
2023-03-17T17:29:03.371Z,49.88
2023-03-17T17:34:04.831Z,50.08
2023-03-17T17:39:06.768Z,50.71
2023-03-17T17:44:08.248Z,52.02
2023-03-17T17:49:11.951Z,53.23
2023-03-17T17:54:13.434Z,53.48
2023-03-17T17:59:15.087Z,53.94
2023-03-17T18:04:16.656Z,54.95
2023-03-17T18:09:18.236Z,56.11
2023-03-17T18:14:19.644Z,56.40
2023-03-17T18:19:21.552Z,55.55
2023-03-17T18:24:24.128Z,56.40
2023-03-17T18:29:25.522Z,56.68
2023-03-17T18:34:35.467Z,57.59
2023-03-17T18:39:37.011Z,57.88
2023-03-17T18:44:39.975Z,58.03
2023-03-17T18:49:41.416Z,58.68
2023-03-17T18:54:42.910Z,59.48
2023-03-17T18:59:44.294Z,60.00
2023-03-17T19:04:47.675Z,59.73
2023-03-17T19:09:49.256Z,60.04
2023-03-17T19:14:51.045Z,60.50
2023-03-17T19:19:52.598Z,60.60
2023-03-17T19:24:54.185Z,60.99
2023-03-17T19:29:55.925Z,60.83
2023-03-17T19:34:57.327Z,60.77
2023-03-17T19:39:58.880Z,59.83
2023-03-17T19:45:00.356Z,60.57
2023-03-17T19:50:01.866Z,60.25
2023-03-17T19:55:05.442Z,60.21
2023-03-17T20:00:10.938Z,60.02
2023-03-17T20:05:12.868Z,59.68
2023-03-17T20:10:14.243Z,59.42
2023-03-17T20:15:16.641Z,58.90
2023-03-17T20:20:18.268Z,58.96
2023-03-17T20:25:19.733Z,58.49
2023-03-17T20:30:22.310Z,57.76
2023-03-17T20:35:25.102Z,58.18
2023-03-17T20:40:27.538Z,57.86
2023-03-17T20:45:29.601Z,58.43
2023-03-17T20:50:31.306Z,58.64
2023-03-17T20:55:32.956Z,58.93
2023-03-17T21:00:34.595Z,59.21
2023-03-17T21:05:36.780Z,59.54
2023-03-17T21:10:38.269Z,59.26
2023-03-17T21:15:41.109Z,59.13
2023-03-17T21:20:42.936Z,61.54
2023-03-17T21:25:44.511Z,62.93
2023-03-17T21:30:46.093Z,63.64
2023-03-17T21:35:47.581Z,64.00
2023-03-17T21:40:49.025Z,64.19
2023-03-17T21:45:51.141Z,64.21
2023-03-17T21:50:53.373Z,64.87
2023-03-17T21:55:54.819Z,64.77
2023-03-17T22:00:56.342Z,64.40
2023-03-17T22:05:58.925Z,64.98
2023-03-17T22:11:05.766Z,66.02
2023-03-17T22:16:08.031Z,65.17
2023-03-17T22:21:10.335Z,65.24
2023-03-17T22:26:14.505Z,65.53
2023-03-17T22:31:18.756Z,64.79
2023-03-17T22:36:20.233Z,64.81
2023-03-17T22:41:23.878Z,64.87
2023-03-17T22:46:25.422Z,65.25
2023-03-17T22:51:26.966Z,65.01
2023-03-17T22:56:28.505Z,65.75
2023-03-17T23:01:29.990Z,66.18
2023-03-17T23:06:31.428Z,65.38
2023-03-17T23:11:33.001Z,66.03
2023-03-17T23:16:34.470Z,65.35
2023-03-17T23:21:38.243Z,65.38
2023-03-17T23:26:39.683Z,65.81
2023-03-17T23:31:41.224Z,67.42
2023-03-17T23:36:42.662Z,67.62
2023-03-17T23:41:44.989Z,66.95
2023-03-17T23:46:46.492Z,66.70
2023-03-17T23:51:48.586Z,66.42
2023-03-17T23:56:50.062Z,66.91
